Time;durP1;ratioP1;P1;durP2;ratioP2;P2;SDS_P1;SDS_P2;PMS_P1;PMS_P2;Temp;Humidity;BMP_temperature;BMP_pressure;BME280_temperature;BME280_humidity;BME280_pressure;Samples;Min_cycle;Max_cycle;Signal;HPM_P1;HPM_P2
2023/09/28 00:00:46;;;;;;;4.35;2.45;;;21.50;98.30;;;;;;7402329;19;19911;-75
2023/09/28 00:02:52;;;;;;;3.88;1.75;;;21.50;98.10;;;;;;7405425;19;19922;-74
2023/09/28 00:05:19;;;;;;;4.25;1.90;;;21.50;98.10;;;;;;7404146;19;19954;-72
2023/09/28 00:07:47;;;;;;;4.38;2.30;;;21.50;98.10;;;;;;7402028;19;19971;-73
2023/09/28 00:10:15;;;;;;;4.90;1.70;;;21.40;97.90;;;;;;7400841;19;19923;-73
2023/09/28 00:12:44;;;;;;;3.75;1.80;;;21.40;97.90;;;;;;7403910;19;19918;-72
2023/09/28 00:15:10;;;;;;;4.15;1.83;;;21.40;98.10;;;;;;7401578;19;19943;-74
2023/09/28 00:17:37;;;;;;;;;;;21.40;98.10;;;;;;7406398;19;20328;-73
2023/09/28 00:20:20;;;;;;;5.57;2.13;;;21.40;98.30;;;;;;7397472;19;19954;-72
2023/09/28 00:22:47;;;;;;;4.60;1.90;;;21.40;98.50;;;;;;7403801;19;19975;-73
2023/09/28 00:25:16;;;;;;;3.00;1.80;;;21.40;98.80;;;;;;7401761;19;19918;-75
2023/09/28 00:27:46;;;;;;;4.22;2.00;;;21.30;98.70;;;;;;7406918;19;19938;-73
2023/09/28 00:30:15;;;;;;;5.28;2.35;;;21.30;98.80;;;;;;7401521;19;19954;-72
2023/09/28 00:32:43;;;;;;;3.83;1.77;;;21.30;98.90;;;;;;7403870;19;20553;-72
2023/09/28 00:35:10;;;;;;;5.05;2.03;;;21.30;98.80;;;;;;7399416;19;20391;-72
2023/09/28 00:37:36;;;;;;;5.40;2.03;;;21.30;98.90;;;;;;7403202;19;19927;-74
2023/09/28 00:40:19;;;;;;;6.03;2.28;;;21.20;99.00;;;;;;7404837;19;19934;-73
2023/09/28 00:42:46;;;;;;;4.35;1.73;;;21.20;99.20;;;;;;7403480;19;19919;-72
2023/09/28 00:45:13;;;;;;;6.82;2.08;;;21.20;99.50;;;;;;7403527;19;19918;-73
2023/09/28 00:47:40;;;;;;;3.50;1.67;;;21.20;99.30;;;;;;7403434;19;19915;-73
2023/09/28 00:50:10;;;;;;;4.72;2.00;;;21.20;99.50;;;;;;7400371;19;19919;-73
2023/09/28 00:52:52;;;;;;;4.28;1.55;;;21.20;99.70;;;;;;7402551;19;19918;-73
2023/09/28 00:55:19;;;;;;;4.47;1.65;;;21.20;99.80;;;;;;7400664;19;19982;-72
2023/09/28 00:57:47;;;;;;;4.57;1.92;;;21.10;99.90;;;;;;7399816;19;19922;-72
2023/09/28 01:00:23;;;;;;;4.13;1.80;;;21.10;99.90;;;;;;7401059;19;19914;-73
2023/09/28 01:02:53;;;;;;;5.03;1.90;;;21.10;99.90;;;;;;7402311;19;20351;-73
2023/09/28 01:05:27;;;;;;;3.80;1.80;;;21.10;99.90;;;;;;7399621;19;19954;-73
2023/09/28 01:07:55;;;;;;;4.88;1.75;;;21.10;99.90;;;;;;7402446;19;19918;-74
2023/09/28 01:10:24;;;;;;;5.60;1.98;;;21.10;99.90;;;;;;7403605;19;20348;-74
2023/09/28 01:12:55;;;;;;;5.57;2.38;;;21.10;99.90;;;;;;7401509;19;20009;-73
2023/09/28 01:15:22;;;;;;;5.57;1.63;;;21.10;99.90;;;;;;7400770;19;19925;-73
2023/09/28 01:17:48;;;;;;;4.07;2.00;;;21.10;99.90;;;;;;7402228;19;19949;-73
2023/09/28 01:20:18;;;;;;;5.05;2.17;;;21.10;99.90;;;;;;7402411;19;19978;-73
2023/09/28 01:22:50;;;;;;;6.20;1.90;;;21.10;99.90;;;;;;7400985;19;20022;-72
2023/09/28 01:25:20;;;;;;;3.80;1.35;;;21.10;99.90;;;;;;7400491;19;20418;-74
2023/09/28 01:27:46;;;;;;;8.32;1.58;;;21.10;99.90;;;;;;7402989;19;19919;-74
2023/09/28 01:30:13;;;;;;;4.60;1.83;;;21.10;99.90;;;;;;7404636;19;19923;-73
2023/09/28 01:32:40;;;;;;;3.75;1.58;;;21.10;99.90;;;;;;7405650;19;19915;-73
2023/09/28 01:35:06;;;;;;;5.60;1.90;;;21.20;99.90;;;;;;7402476;19;19914;-73
2023/09/28 01:38:02;;;;;;;3.80;1.75;;;21.20;99.90;;;;;;7406481;19;19911;-73
2023/09/28 01:40:28;;;;;;;4.80;1.80;;;21.20;99.90;;;;;;7397629;19;19954;-72
2023/09/28 01:42:54;;;;;;;4.18;1.58;;;21.30;99.90;;;;;;7395822;19;19915;-73
2023/09/28 01:45:19;;;;;;;5.53;1.92;;;21.30;99.90;;;;;;7400793;19;19911;-72
2023/09/28 01:47:45;;;;;;;4.43;1.83;;;21.20;99.90;;;;;;7405027;19;19965;-74
2023/09/28 01:50:11;;;;;;;3.60;2.05;;;21.20;99.90;;;;;;7404889;19;19914;-74
2023/09/28 01:52:36;;;;;;;6.60;2.20;;;21.20;99.90;;;;;;7401381;19;19919;-74
2023/09/28 01:55:03;;;;;;;4.22;2.00;;;21.10;99.90;;;;;;7402925;19;19914;-75
2023/09/28 01:57:28;;;;;;;4.10;1.40;;;21.10;99.90;;;;;;7399470;19;20447;-75
2023/09/28 01:59:54;;;;;;;6.00;1.90;;;21.10;99.90;;;;;;7400907;19;19915;-73
2023/09/28 02:02:21;;;;;;;5.53;1.77;;;21.20;99.90;;;;;;7398265;19;19942;-72
2023/09/28 02:04:47;;;;;;;4.60;1.60;;;21.20;99.90;;;;;;7399644;19;19915;-72
2023/09/28 02:07:13;;;;;;;4.13;2.15;;;21.20;99.90;;;;;;7395456;19;19938;-73
2023/09/28 02:09:39;;;;;;;5.25;1.83;;;21.20;99.90;;;;;;7398807;19;20007;-73
2023/09/28 02:12:06;;;;;;;4.32;2.13;;;21.20;99.90;;;;;;7400503;19;19911;-72
2023/09/28 02:14:33;;;;;;;4.72;1.95;;;21.10;99.90;;;;;;7401033;19;19922;-73
2023/09/28 02:16:58;;;;;;;4.97;1.88;;;21.10;99.90;;;;;;7402682;19;19919;-74
2023/09/28 02:19:24;;;;;;;4.07;1.80;;;21.10;99.90;;;;;;7402483;19;19943;-72
2023/09/28 02:21:51;;;;;;;4.68;1.73;;;21.00;99.90;;;;;;7400223;19;19938;-73
2023/09/28 02:24:17;;;;;;;3.67;2.10;;;20.90;99.90;;;;;;7401233;19;19946;-76
2023/09/28 02:26:44;;;;;;;3.55;1.75;;;20.90;99.90;;;;;;7400419;19;19934;-75
2023/09/28 02:29:12;;;;;;;4.30;2.17;;;20.90;99.90;;;;;;7397700;19;19915;-74
2023/09/28 02:31:44;;;;;;;5.28;2.08;;;20.90;99.90;;;;;;7400773;19;19910;-73
2023/09/28 02:34:09;;;;;;;6.22;2.25;;;20.90;99.90;;;;;;7398664;19;19914;-73
2023/09/28 02:36:36;;;;;;;3.95;2.25;;;21.00;99.90;;;;;;7399524;19;19926;-73
2023/09/28 02:39:07;;;;;;;5.72;2.33;;;20.90;99.90;;;;;;7399539;19;19911;-74
2023/09/28 02:41:35;;;;;;;6.47;2.90;;;21.00;99.90;;;;;;7400904;19;19943;-74
2023/09/28 02:44:01;;;;;;;5.32;2.20;;;21.00;99.90;;;;;;7398588;19;19946;-74
2023/09/28 02:46:26;;;;;;;4.80;2.28;;;20.90;99.90;;;;;;7400079;19;19918;-74
2023/09/28 02:48:52;;;;;;;4.20;1.65;;;21.00;99.90;;;;;;7400300;19;20276;-75
2023/09/28 02:51:18;;;;;;;4.82;2.45;;;20.90;99.90;;;;;;7401790;19;19914;-74
2023/09/28 02:53:44;;;;;;;5.72;2.58;;;21.00;99.90;;;;;;7400337;19;19925;-73
2023/09/28 02:56:12;;;;;;;5.55;2.63;;;20.90;99.90;;;;;;7400392;19;19994;-74
2023/09/28 02:58:38;;;;;;;5.68;3.30;;;20.80;99.90;;;;;;7398471;19;19923;-73
2023/09/28 03:01:04;;;;;;;6.03;3.63;;;20.70;99.90;;;;;;7398002;19;19923;-74
2023/09/28 03:03:30;;;;;;;7.18;3.10;;;20.70;99.90;;;;;;7399199;19;19938;-73
2023/09/28 03:05:58;;;;;;;8.38;4.15;;;20.70;99.90;;;;;;7399765;19;19922;-72
2023/09/28 03:08:24;;;;;;;5.53;3.53;;;20.60;99.90;;;;;;7397416;19;19958;-73
2023/09/28 03:10:52;;;;;;;7.25;4.10;;;20.70;99.90;;;;;;7377448;19;19997;-72
2023/09/28 03:13:19;;;;;;;5.75;4.10;;;20.70;99.90;;;;;;7397746;19;19918;-75
2023/09/28 03:15:45;;;;;;;7.25;4.75;;;20.70;99.90;;;;;;7400690;19;19915;-75
2023/09/28 03:18:14;;;;;;;;;;;20.70;99.90;;;;;;7401092;19;19918;-75
2023/09/28 03:20:44;;;;;;;6.40;3.55;;;20.70;99.90;;;;;;7400314;19;19953;-74
2023/09/28 03:23:12;;;;;;;6.43;4.10;;;20.70;99.90;;;;;;7396842;19;19925;-75
2023/09/28 03:25:39;;;;;;;6.75;3.42;;;20.80;99.90;;;;;;7398852;19;19922;-73
2023/09/28 03:28:06;;;;;;;8.18;3.90;;;20.80;99.90;;;;;;7396409;19;19926;-73
2023/09/28 03:30:32;;;;;;;6.13;4.22;;;20.80;99.90;;;;;;7397551;19;20319;-74
2023/09/28 03:32:59;;;;;;;7.13;3.53;;;20.80;99.90;;;;;;7399568;19;19923;-74
2023/09/28 03:35:26;;;;;;;6.68;3.85;;;20.80;99.90;;;;;;7394737;19;19930;-74
2023/09/28 03:37:54;;;;;;;6.35;3.17;;;20.70;99.90;;;;;;7397745;19;19922;-73
2023/09/28 03:40:20;;;;;;;7.53;3.65;;;20.70;99.90;;;;;;7396945;19;19915;-72
2023/09/28 03:42:50;;;;;;;7.15;3.45;;;20.70;99.90;;;;;;7404580;19;19918;-73
2023/09/28 03:45:21;;;;;;;5.15;3.67;;;20.70;99.90;;;;;;7405026;19;20391;-72
2023/09/28 03:47:49;;;;;;;8.70;3.85;;;20.70;99.90;;;;;;7403965;19;20308;-73
2023/09/28 03:50:15;;;;;;;6.60;3.72;;;20.70;99.90;;;;;;7401303;19;19918;-73
2023/09/28 03:52:43;;;;;;;6.43;3.15;;;20.70;99.90;;;;;;7404704;19;19931;-74
2023/09/28 03:55:19;;;;;;;6.75;3.35;;;20.70;99.90;;;;;;7402627;19;19927;-74
2023/09/28 03:57:46;;;;;;;8.25;3.58;;;20.70;99.90;;;;;;7407027;19;19914;-75
2023/09/28 04:00:12;;;;;;;;;;;20.60;99.90;;;;;;7386020;19;19934;-73
2023/09/28 04:02:39;;;;;;;7.30;3.78;;;20.60;99.90;;;;;;7403234;19;20354;-73
2023/09/28 04:05:06;;;;;;;5.65;2.90;;;20.60;99.90;;;;;;7402101;19;19919;-73
2023/09/28 04:07:31;;;;;;;4.82;2.67;;;20.60;99.90;;;;;;7381730;19;20306;-73
2023/09/28 04:09:57;;;;;;;6.63;3.35;;;20.50;99.90;;;;;;7402604;19;19927;-73
2023/09/28 04:12:23;;;;;;;7.05;3.40;;;20.60;99.90;;;;;;7405668;19;19922;-74
2023/09/28 04:14:49;;;;;;;7.88;3.45;;;20.50;99.90;;;;;;7406214;19;19922;-74
2023/09/28 04:17:17;;;;;;;5.68;3.13;;;20.60;99.90;;;;;;7401208;19;19914;-72
2023/09/28 04:19:43;;;;;;;6.97;3.38;;;20.60;99.90;;;;;;7402692;19;19915;-73
2023/09/28 04:22:09;;;;;;;6.95;3.42;;;20.60;99.90;;;;;;7402886;19;19922;-74
2023/09/28 04:24:35;;;;;;;5.78;2.78;;;20.60;99.90;;;;;;7382322;19;19921;-74
2023/09/28 04:27:00;;;;;;;7.95;3.00;;;20.60;99.90;;;;;;7400188;19;19919;-74
2023/09/28 04:29:27;;;;;;;5.43;2.83;;;20.60;99.90;;;;;;7380713;19;19921;-73
2023/09/28 04:31:54;;;;;;;4.90;2.55;;;20.60;99.90;;;;;;7401019;19;20232;-73
2023/09/28 04:34:20;;;;;;;6.10;2.50;;;20.70;99.90;;;;;;7400919;19;20327;-74
2023/09/28 04:36:46;;;;;;;5.78;2.80;;;20.70;99.90;;;;;;7401498;19;20383;-72
2023/09/28 04:39:12;;;;;;;4.88;2.83;;;20.70;99.90;;;;;;7396927;19;19915;-73
2023/09/28 04:41:39;;;;;;;5.05;3.00;;;20.70;99.90;;;;;;7404688;19;19918;-72
2023/09/28 04:44:06;;;;;;;7.28;2.95;;;20.70;99.90;;;;;;7403218;19;19918;-72
2023/09/28 04:46:33;;;;;;;8.43;3.33;;;20.70;99.90;;;;;;7403520;19;19948;-73
2023/09/28 04:48:59;;;;;;;6.45;3.65;;;20.70;99.90;;;;;;7404484;19;19922;-73
2023/09/28 04:51:25;;;;;;;6.43;2.70;;;20.60;99.90;;;;;;7401118;19;20371;-74
2023/09/28 04:53:51;;;;;;;7.72;4.03;;;20.60;99.90;;;;;;7401495;19;19936;-74
2023/09/28 04:56:17;;;;;;;6.50;3.70;;;20.50;99.90;;;;;;7403244;19;20332;-74
2023/09/28 04:58:44;;;;;;;7.75;3.25;;;20.60;99.90;;;;;;7401928;19;19925;-74
2023/09/28 05:01:10;;;;;;;6.20;3.75;;;20.50;99.90;;;;;;7400349;19;20240;-73
2023/09/28 05:03:36;;;;;;;6.22;4.32;;;20.60;99.90;;;;;;7404146;19;19977;-71
2023/09/28 05:06:02;;;;;;;8.35;3.92;;;20.50;99.90;;;;;;7399058;19;19978;-73
2023/09/28 05:08:28;;;;;;;7.05;3.72;;;20.50;99.90;;;;;;7401755;19;19926;-72
2023/09/28 05:10:54;;;;;;;8.57;3.90;;;20.50;99.90;;;;;;7403505;19;20343;-72
2023/09/28 05:13:23;;;;;;;7.25;4.28;;;20.50;99.90;;;;;;7401969;19;20372;-73
2023/09/28 05:15:49;;;;;;;7.63;4.20;;;20.50;99.90;;;;;;7400803;19;19942;-74
2023/09/28 05:18:14;;;;;;;7.65;3.60;;;20.50;99.90;;;;;;7399781;19;20295;-73
2023/09/28 05:20:40;;;;;;;6.78;3.60;;;20.50;99.90;;;;;;7406093;19;20322;-74
2023/09/28 05:23:09;;;;;;;7.10;3.53;;;20.50;99.90;;;;;;7401541;19;19919;-75
2023/09/28 05:25:35;;;;;;;6.25;4.43;;;20.50;99.90;;;;;;7403065;19;19934;-73
2023/09/28 05:28:01;;;;;;;6.82;4.25;;;20.50;99.90;;;;;;7402994;19;19952;-73
2023/09/28 05:30:27;;;;;;;;;;;20.50;99.90;;;;;;7381324;19;19926;-74
2023/09/28 05:32:54;;;;;;;7.10;3.80;;;20.50;99.90;;;;;;7401865;19;19952;-73
2023/09/28 05:35:21;;;;;;;10.23;4.00;;;20.50;99.90;;;;;;7399223;19;19922;-73
2023/09/28 05:37:47;;;;;;;6.22;3.92;;;20.50;99.90;;;;;;7395242;19;19918;-72
2023/09/28 05:40:13;;;;;;;6.45;3.50;;;20.50;99.90;;;;;;7400353;19;19950;-72
2023/09/28 05:42:40;;;;;;;7.32;3.90;;;20.50;99.90;;;;;;7399933;19;19911;-73
2023/09/28 05:45:06;;;;;;;5.82;3.65;;;20.50;99.90;;;;;;7401391;19;19925;-74
2023/09/28 05:47:33;;;;;;;7.10;3.55;;;20.50;99.90;;;;;;7401398;19;19929;-74
2023/09/28 05:49:59;;;;;;;9.48;4.20;;;20.50;99.90;;;;;;7380360;19;19963;-74
2023/09/28 05:52:27;;;;;;;7.35;3.88;;;20.50;99.90;;;;;;7375141;19;20327;-73
2023/09/28 05:54:53;;;;;;;8.10;3.25;;;20.50;99.90;;;;;;7405551;19;19972;-73
2023/09/28 05:57:22;;;;;;;6.43;3.30;;;20.60;99.90;;;;;;7399752;19;19923;-74
2023/09/28 05:59:48;;;;;;;6.63;3.28;;;20.70;99.90;;;;;;7399715;19;19946;-74
2023/09/28 06:02:15;;;;;;;5.88;3.55;;;20.60;99.90;;;;;;7398362;19;19924;-73
2023/09/28 06:04:44;;;;;;;5.47;2.95;;;20.70;99.90;;;;;;7398982;19;19982;-73
2023/09/28 06:07:11;;;;;;;4.95;3.25;;;20.70;99.90;;;;;;7396994;19;19982;-74
2023/09/28 06:09:38;;;;;;;5.55;3.10;;;20.80;99.90;;;;;;7400544;19;19921;-74
2023/09/28 06:12:05;;;;;;;7.72;3.63;;;20.90;99.90;;;;;;7399607;19;19975;-75
2023/09/28 06:14:30;;;;;;;5.32;3.15;;;20.90;99.90;;;;;;7401048;19;20342;-74
2023/09/28 06:16:56;;;;;;;6.75;3.42;;;21.00;99.90;;;;;;7404165;19;19919;-74
2023/09/28 06:19:22;;;;;;;7.15;3.13;;;21.10;99.90;;;;;;7404217;19;19950;-73
2023/09/28 06:21:48;;;;;;;8.35;3.40;;;21.10;99.90;;;;;;7403108;19;20690;-74
2023/09/28 06:24:13;;;;;;;11.35;3.70;;;21.20;99.90;;;;;;7401558;19;19918;-74
2023/09/28 06:26:40;;;;;;;8.00;3.30;;;21.30;99.90;;;;;;7400972;19;19919;-74
2023/09/28 06:29:06;;;;;;;15.20;4.45;;;21.30;99.90;;;;;;7400179;19;19919;-74
2023/09/28 06:31:33;;;;;;;12.27;4.00;;;21.40;99.90;;;;;;7402281;19;19907;-73
2023/09/28 06:33:58;;;;;;;;;;;21.50;99.60;;;;;;7403284;19;19919;-73
2023/09/28 06:36:25;;;;;;;7.85;3.50;;;21.50;99.20;;;;;;7393939;19;20644;-73
2023/09/28 06:38:51;;;;;;;;;;;21.60;99.10;;;;;;7401559;19;19928;-72
2023/09/28 06:41:17;;;;;;;5.20;3.08;;;21.60;98.80;;;;;;7390851;19;19910;-72
2023/09/28 06:43:43;;;;;;;7.70;3.15;;;21.70;98.60;;;;;;7390943;19;19929;-74
2023/09/28 06:46:09;;;;;;;7.93;3.30;;;21.70;98.60;;;;;;7389547;19;19915;-72
2023/09/28 06:48:35;;;;;;;10.25;3.78;;;21.80;98.30;;;;;;7399578;19;19935;-74
2023/09/28 06:51:01;;;;;;;5.93;3.22;;;21.80;97.90;;;;;;7399134;19;19914;-74
2023/09/28 06:53:27;;;;;;;8.93;3.88;;;21.80;98.10;;;;;;7397945;19;19926;-75
2023/09/28 06:55:55;;;;;;;22.95;5.70;;;21.90;97.80;;;;;;7401206;19;19921;-75
2023/09/28 06:58:22;;;;;;;13.45;3.58;;;21.80;97.50;;;;;;7397649;19;19922;-75
2023/09/28 07:00:47;;;;;;;8.07;3.10;;;21.80;97.70;;;;;;7398543;19;20544;-76
2023/09/28 07:03:14;;;;;;;6.88;3.70;;;21.80;97.60;;;;;;7395045;19;19918;-75
2023/09/28 07:05:40;;;;;;;9.00;4.82;;;21.80;97.60;;;;;;7391249;19;19922;-73
2023/09/28 07:08:06;;;;;;;7.63;3.55;;;21.90;97.60;;;;;;7390610;19;19915;-73
2023/09/28 07:10:33;;;;;;;6.75;2.85;;;21.90;97.50;;;;;;7386664;19;19941;-73
2023/09/28 07:13:00;;;;;;;5.55;2.92;;;21.90;97.40;;;;;;7395360;19;19918;-73
2023/09/28 07:15:31;;;;;;;6.18;2.90;;;21.90;97.50;;;;;;7384671;19;19930;-76
2023/09/28 07:17:57;;;;;;;8.88;3.75;;;21.90;97.60;;;;;;7404566;19;19914;-73
2023/09/28 07:20:26;;;;;;;7.80;3.20;;;21.90;97.70;;;;;;7396931;19;20283;-73
2023/09/28 07:22:52;;;;;;;7.15;2.90;;;22.00;97.70;;;;;;7395725;19;19914;-72
2023/09/28 07:25:19;;;;;;;7.03;3.30;;;22.00;97.70;;;;;;7399575;19;19945;-73
2023/09/28 07:27:49;;;;;;;7.40;2.80;;;22.10;97.60;;;;;;7395837;19;19915;-73
2023/09/28 07:30:15;;;;;;;8.15;3.03;;;22.10;97.40;;;;;;7403102;19;19922;-73
2023/09/28 07:32:41;;;;;;;12.02;3.67;;;22.10;97.60;;;;;;7405107;19;19915;-74
2023/09/28 07:35:11;;;;;;;23.08;4.70;;;22.20;97.40;;;;;;7405982;19;19925;-72
2023/09/28 07:37:38;;;;;;;12.32;3.25;;;22.20;97.00;;;;;;7407278;19;19950;-73
2023/09/28 07:40:06;;;;;;;10.80;3.60;;;22.20;96.70;;;;;;7405720;19;19986;-73
2023/09/28 07:42:32;;;;;;;24.85;13.10;;;22.30;96.60;;;;;;7404660;19;19922;-73
2023/09/28 07:44:58;;;;;;;10.98;3.80;;;22.30;96.30;;;;;;7401701;19;20010;-74
2023/09/28 07:47:24;;;;;;;7.70;2.70;;;22.40;96.20;;;;;;7403905;19;20010;-74
2023/09/28 07:49:52;;;;;;;8.73;3.17;;;22.50;95.70;;;;;;7400767;19;19930;-74
2023/09/28 07:52:18;;;;;;;6.78;2.92;;;22.50;95.50;;;;;;7404475;19;19919;-73
2023/09/28 07:54:44;;;;;;;10.73;3.33;;;22.50;95.20;;;;;;7402512;19;19922;-74
2023/09/28 07:57:10;;;;;;;7.88;3.03;;;22.60;95.00;;;;;;7401906;19;19926;-74
2023/09/28 07:59:36;;;;;;;11.32;3.35;;;22.50;94.40;;;;;;7404571;19;19967;-73
2023/09/28 08:02:04;;;;;;;;;;;22.60;94.60;;;;;;7410246;19;19919;-74
2023/09/28 08:04:30;;;;;;;14.02;3.60;;;22.60;94.50;;;;;;7402358;19;19926;-73
2023/09/28 08:06:57;;;;;;;15.63;3.20;;;22.60;94.40;;;;;;7404452;19;19918;-73
2023/09/28 08:09:23;;;;;;;23.80;4.30;;;22.70;94.50;;;;;;7399275;19;19938;-74
2023/09/28 08:11:50;;;;;;;22.48;4.80;;;22.80;93.90;;;;;;7405217;19;19919;-74
2023/09/28 08:14:16;;;;;;;12.20;3.08;;;22.80;93.50;;;;;;7398166;19;19930;-71
2023/09/28 08:16:44;;;;;;;11.38;3.60;;;22.90;93.20;;;;;;7401201;19;19922;-73
2023/09/28 08:19:10;;;;;;;5.88;2.35;;;22.80;93.50;;;;;;7402371;19;20023;-71
2023/09/28 08:21:38;;;;;;;8.93;2.45;;;22.80;93.20;;;;;;7403625;19;19933;-74
2023/09/28 08:24:05;;;;;;;6.18;2.75;;;22.80;93.00;;;;;;7400534;19;19939;-75
2023/09/28 08:26:31;;;;;;;7.72;2.72;;;22.90;93.00;;;;;;7402778;19;19982;-72
2023/09/28 08:29:00;;;;;;;7.35;2.60;;;23.00;92.50;;;;;;7399517;19;20243;-72
2023/09/28 08:31:29;;;;;;;6.38;2.45;;;23.10;92.40;;;;;;7401341;19;19925;-74
2023/09/28 08:33:55;;;;;;;5.13;2.28;;;23.10;92.30;;;;;;7405047;19;19978;-74
2023/09/28 08:36:21;;;;;;;6.93;2.08;;;23.10;91.90;;;;;;7398072;19;20769;-75
2023/09/28 08:38:48;;;;;;;4.70;2.25;;;23.10;91.60;;;;;;7405499;19;19922;-74
2023/09/28 08:41:16;;;;;;;;;;;23.20;91.90;;;;;;7402781;19;19915;-75
2023/09/28 08:43:43;;;;;;;6.00;2.40;;;23.30;91.10;;;;;;7402230;19;20009;-73
2023/09/28 08:46:13;;;;;;;5.72;2.30;;;23.30;91.20;;;;;;7400019;19;19921;-74
2023/09/28 08:48:45;;;;;;;5.53;2.30;;;23.60;90.40;;;;;;7401078;19;19910;-73
2023/09/28 08:51:11;;;;;;;10.35;5.00;;;23.80;89.70;;;;;;7402325;19;19922;-73
2023/09/28 08:53:43;;;;;;;7.47;2.95;;;23.90;89.90;;;;;;7401774;19;19922;-73
2023/09/28 08:56:09;;;;;;;5.47;2.90;;;24.00;88.80;;;;;;7397288;19;19922;-73
2023/09/28 08:58:37;;;;;;;7.47;3.13;;;24.10;85.40;;;;;;7401101;19;19935;-73
2023/09/28 09:01:04;;;;;;;6.60;2.25;;;24.20;83.80;;;;;;7397182;19;19930;-75
2023/09/28 09:03:35;;;;;;;5.30;2.65;;;24.00;85.10;;;;;;7403134;19;19927;-72
2023/09/28 09:06:06;;;;;;;6.32;2.25;;;24.00;86.50;;;;;;7377681;19;19922;-72
2023/09/28 09:08:35;;;;;;;5.68;2.20;;;24.00;87.50;;;;;;7400172;19;19926;-72
2023/09/28 09:11:01;;;;;;;5.70;2.28;;;24.40;86.00;;;;;;7400035;19;19926;-73
2023/09/28 09:13:29;;;;;;;5.28;2.10;;;24.70;83.90;;;;;;7400205;19;19998;-74
2023/09/28 09:15:56;;;;;;;4.95;2.55;;;24.70;81.60;;;;;;7401261;19;20403;-72
2023/09/28 09:18:25;;;;;;;3.80;2.22;;;24.50;82.00;;;;;;7401232;19;20041;-73
2023/09/28 09:20:57;;;;;;;6.60;2.65;;;24.60;83.00;;;;;;7400098;19;20336;-72
2023/09/28 09:23:24;;;;;;;5.10;2.92;;;24.70;81.40;;;;;;7399717;19;19927;-73
2023/09/28 09:25:56;;;;;;;5.65;2.88;;;24.70;82.30;;;;;;7402008;19;19919;-73
2023/09/28 09:28:33;;;;;;;6.53;2.72;;;24.90;81.10;;;;;;7400287;19;19938;-74
2023/09/28 09:30:59;;;;;;;4.47;2.15;;;24.90;81.40;;;;;;7401455;19;19915;-75
2023/09/28 09:33:25;;;;;;;7.82;2.55;;;25.00;79.60;;;;;;7401127;19;20244;-74
2023/09/28 09:35:52;;;;;;;6.50;2.70;;;25.30;79.00;;;;;;7378161;19;19929;-72
2023/09/28 09:38:28;;;;;;;10.27;3.28;;;25.20;79.60;;;;;;7376658;19;20347;-73
2023/09/28 09:40:59;;;;;;;7.97;3.35;;;25.10;81.90;;;;;;7397856;19;19927;-72
2023/09/28 09:43:29;;;;;;;7.22;2.75;;;25.10;80.90;;;;;;7400946;19;19918;-73
2023/09/28 09:45:55;;;;;;;13.40;3.30;;;25.40;79.10;;;;;;7400450;19;19925;-73
2023/09/28 09:48:22;;;;;;;6.88;3.40;;;25.50;78.90;;;;;;7399489;19;19927;-72
2023/09/28 09:50:49;;;;;;;6.60;3.65;;;25.30;78.70;;;;;;7401927;19;19922;-74
2023/09/28 09:53:19;;;;;;;9.50;3.63;;;25.20;79.30;;;;;;7396726;19;20007;-73
2023/09/28 09:55:49;;;;;;;9.93;3.97;;;25.20;80.10;;;;;;7400260;19;19943;-74
2023/09/28 09:58:18;;;;;;;8.20;3.97;;;25.10;80.70;;;;;;7397818;19;19915;-74
2023/09/28 10:00:44;;;;;;;10.00;4.30;;;25.60;79.60;;;;;;7400189;19;19910;-74
2023/09/28 10:03:11;;;;;;;7.65;3.10;;;25.80;77.50;;;;;;7397766;19;19998;-73
2023/09/28 10:05:39;;;;;;;7.32;4.00;;;25.60;78.10;;;;;;7398712;19;19929;-73
2023/09/28 10:08:07;;;;;;;9.38;3.95;;;26.10;76.50;;;;;;7378152;19;19934;-73
2023/09/28 10:10:34;;;;;;;6.80;3.58;;;25.80;74.60;;;;;;7400571;19;19922;-71
2023/09/28 10:13:01;;;;;;;8.25;4.40;;;26.10;74.90;;;;;;7400759;19;19947;-73
2023/09/28 10:15:27;;;;;;;7.75;3.63;;;26.50;74.30;;;;;;7399305;19;20450;-74
2023/09/28 10:17:53;;;;;;;6.05;4.00;;;26.40;72.70;;;;;;7401699;19;19914;-75
2023/09/28 10:20:20;;;;;;;10.05;3.95;;;26.00;73.40;;;;;;7396685;19;20728;-75
2023/09/28 10:22:47;;;;;;;10.02;3.28;;;26.30;73.70;;;;;;7400384;19;19915;-73
2023/09/28 10:25:15;;;;;;;9.35;2.72;;;26.60;72.70;;;;;;7397920;19;19951;-74
2023/09/28 10:27:44;;;;;;;6.57;3.47;;;26.50;72.10;;;;;;7401277;19;19918;-74
2023/09/28 10:30:18;;;;;;;8.80;3.40;;;26.40;71.60;;;;;;7399259;19;19964;-74
2023/09/28 10:32:45;;;;;;;6.32;3.70;;;26.60;71.50;;;;;;7401700;19;19910;-72
2023/09/28 10:35:28;;;;;;;8.43;3.22;;;26.50;70.10;;;;;;7398127;19;19906;-73
2023/09/28 10:38:19;;;;;;;8.57;3.90;;;26.90;69.60;;;;;;7397010;19;19911;-73
2023/09/28 10:41:07;;;;;;;5.68;3.33;;;27.10;68.70;;;;;;7397584;19;19981;-74
2023/09/28 10:43:36;;;;;;;6.90;3.35;;;27.50;66.40;;;;;;7398534;19;19925;-74
2023/09/28 10:46:03;;;;;;;5.93;2.90;;;27.30;66.50;;;;;;7397547;19;19922;-74
2023/09/28 10:48:37;;;;;;;6.03;3.42;;;27.70;65.60;;;;;;7398718;19;20331;-73
2023/09/28 10:51:15;;;;;;;7.30;2.72;;;27.80;63.60;;;;;;7398515;19;19919;-73
2023/09/28 10:53:42;;;;;;;8.38;3.38;;;27.90;64.20;;;;;;7404466;19;19918;-74
2023/09/28 10:56:08;;;;;;;;;;;28.10;62.10;;;;;;7400855;19;19921;-73
2023/09/28 10:58:38;;;;;;;5.85;3.08;;;28.20;61.00;;;;;;7407050;19;19922;-74
2023/09/28 11:01:06;;;;;;;7.40;2.88;;;28.20;61.10;;;;;;7404730;19;19929;-73
2023/09/28 11:03:33;;;;;;;7.25;3.00;;;27.70;60.80;;;;;;7406551;19;19911;-75
2023/09/28 11:06:01;;;;;;;7.07;3.25;;;28.00;62.00;;;;;;7408222;19;20376;-75
2023/09/28 11:08:27;;;;;;;12.02;3.65;;;27.80;61.80;;;;;;7404759;19;19989;-75
2023/09/28 11:10:55;;;;;;;;;;;28.30;60.60;;;;;;7409058;19;19922;-75
2023/09/28 11:13:21;;;;;;;4.50;2.97;;;28.20;61.10;;;;;;7402937;19;19918;-74
2023/09/28 11:15:49;;;;;;;6.55;2.67;;;27.00;63.30;;;;;;7404646;19;20304;-74
2023/09/28 11:18:18;;;;;;;9.07;3.70;;;27.30;64.00;;;;;;7401931;19;20020;-74
2023/09/28 11:20:44;;;;;;;6.35;3.08;;;27.90;62.10;;;;;;7403978;19;19931;-74
2023/09/28 11:23:12;;;;;;;;;;;27.70;62.50;;;;;;7405855;19;19926;-73
2023/09/28 11:25:44;;;;;;;5.65;3.45;;;27.60;64.70;;;;;;7406899;19;19914;-73
2023/09/28 11:28:11;;;;;;;5.82;2.95;;;28.10;62.40;;;;;;7401695;19;19930;-73
2023/09/28 11:30:37;;;;;;;5.93;3.58;;;28.30;60.80;;;;;;7405981;19;19929;-72
2023/09/28 11:33:04;;;;;;;7.13;2.67;;;28.20;60.50;;;;;;7404557;19;20211;-74
2023/09/28 11:35:31;;;;;;;6.05;3.65;;;28.30;59.80;;;;;;7403905;19;19922;-73
2023/09/28 11:38:02;;;;;;;8.15;3.88;;;27.80;60.90;;;;;;7406356;19;19915;-75
2023/09/28 11:40:30;;;;;;;8.65;2.95;;;28.40;61.00;;;;;;7405917;19;20654;-74
2023/09/28 11:43:00;;;;;;;7.20;3.20;;;28.00;62.10;;;;;;7406483;19;19949;-74
2023/09/28 11:45:35;;;;;;;8.07;3.42;;;28.40;60.70;;;;;;7405852;19;19918;-74
2023/09/28 11:48:06;;;;;;;8.05;4.07;;;28.90;59.20;;;;;;7406016;19;19919;-74
2023/09/28 11:50:33;;;;;;;5.70;3.15;;;29.30;55.60;;;;;;7403026;19;19946;-75
2023/09/28 11:52:59;;;;;;;5.68;2.72;;;27.90;58.70;;;;;;7408089;19;19956;-74
2023/09/28 11:55:26;;;;;;;6.60;3.63;;;28.30;60.90;;;;;;7402508;19;19956;-74
2023/09/28 11:57:54;;;;;;;6.28;3.38;;;29.10;57.60;;;;;;7404218;19;19924;-73
2023/09/28 12:00:21;;;;;;;6.47;2.25;;;29.00;57.90;;;;;;7399260;19;20719;-73
2023/09/28 12:02:48;;;;;;;9.05;3.13;;;29.10;57.50;;;;;;7401855;19;19943;-75
2023/09/28 12:05:14;;;;;;;6.55;4.00;;;28.60;57.70;;;;;;7391060;19;19930;-75
2023/09/28 12:07:41;;;;;;;5.68;4.07;;;28.70;58.70;;;;;;7399280;19;19919;-77
2023/09/28 12:10:11;;;;;;;7.53;3.50;;;28.70;59.00;;;;;;7396191;19;19925;-74
2023/09/28 12:12:39;;;;;;;6.93;3.92;;;28.50;59.60;;;;;;7394465;19;19926;-76
2023/09/28 12:15:07;;;;;;;5.47;3.78;;;29.20;58.00;;;;;;7394363;19;19953;-76
2023/09/28 12:17:34;;;;;;;5.43;3.70;;;29.30;56.20;;;;;;7381929;19;20349;-72
2023/09/28 12:20:00;;;;;;;6.38;3.70;;;28.90;56.90;;;;;;7394348;19;19919;-73
2023/09/28 12:22:26;;;;;;;;;;;28.70;58.50;;;;;;7402275;19;20659;-73
2023/09/28 12:24:51;;;;;;;6.60;3.45;;;28.20;59.40;;;;;;7387453;19;19923;-73
2023/09/28 12:27:18;;;;;;;;;;;27.80;62.20;;;;;;7397254;19;19920;-75
2023/09/28 12:29:44;;;;;;;6.70;2.42;;;28.60;60.10;;;;;;7395884;19;20386;-75
2023/09/28 12:32:10;;;;;;;5.25;3.10;;;28.20;61.10;;;;;;7393086;19;20442;-75
2023/09/28 12:34:36;;;;;;;;;;;28.30;60.00;;;;;;7396655;19;19929;-74
2023/09/28 12:37:02;;;;;;;6.20;2.85;;;27.90;60.70;;;;;;7395213;19;19915;-73
2023/09/28 12:39:27;;;;;;;;;;;28.10;60.10;;;;;;7394632;19;19962;-74
2023/09/28 12:41:53;;;;;;;5.65;4.40;;;27.90;60.60;;;;;;7394737;19;19915;-75
2023/09/28 12:44:22;;;;;;;;;;;28.20;60.90;;;;;;7395609;19;20296;-75
2023/09/28 12:46:48;;;;;;;6.82;3.58;;;28.70;59.00;;;;;;7391763;19;19923;-75
2023/09/28 12:49:15;;;;;;;;;;;28.70;58.00;;;;;;7392468;19;19914;-75
2023/09/28 12:51:46;;;;;;;9.50;3.17;;;28.80;57.70;;;;;;7386763;19;19919;-75